Time;durP1;ratioP1;P1;durP2;ratioP2;P2;SDS_P1;SDS_P2;PMS_P1;PMS_P2;Temp;Humidity;BMP_temperature;BMP_pressure;BME280_temperature;BME280_humidity;BME280_pressure;Samples;Min_cycle;Max_cycle;Signal;HPM_P1;HPM_P2
2022/07/14 00:00:21;;;;;;;;;;;25.10;52.90;;;;;;5148397;27;20401;-80
2022/07/14 00:02:47;;;;;;;;;;;25.10;53.00;;;;;;5148440;27;19967;-81
2022/07/14 00:05:14;;;;;;;;;;;25.10;53.00;;;;;;5147989;27;19924;-80
2022/07/14 00:07:42;;;;;;;;;;;25.10;53.10;;;;;;5148050;27;19990;-81
2022/07/14 00:10:09;;;;;;;;;;;25.10;53.10;;;;;;5148524;27;19962;-80
2022/07/14 00:12:36;;;;;;;;;;;25.10;53.20;;;;;;5147580;27;19975;-80
2022/07/14 00:15:02;;;;;;;;;;;25.10;53.20;;;;;;5147768;27;20022;-80
2022/07/14 00:17:29;;;;;;;;;;;25.10;53.30;;;;;;5148360;27;19955;-80
2022/07/14 00:19:56;;;;;;;;;;;25.10;53.40;;;;;;5146864;27;19969;-80
2022/07/14 00:22:22;;;;;;;;;;;25.10;53.50;;;;;;5147225;27;20425;-80
2022/07/14 00:24:50;;;;;;;;;;;25.10;53.50;;;;;;5147399;27;20314;-81
2022/07/14 00:27:17;;;;;;;;;;;25.10;53.60;;;;;;5147314;27;19977;-80
2022/07/14 00:29:44;;;;;;;;;;;25.10;53.60;;;;;;5147249;27;19930;-80
2022/07/14 00:32:11;;;;;;;;;;;25.10;53.70;;;;;;5145919;27;19969;-81
2022/07/14 00:34:37;;;;;;;;;;;25.10;53.70;;;;;;5147471;27;19923;-81
2022/07/14 00:37:04;;;;;;;;;;;25.10;53.80;;;;;;5145457;27;20002;-80
2022/07/14 00:39:54;;;;;;;;;;;25.10;53.80;;;;;;5145790;27;19927;-80
2022/07/14 00:42:28;;;;;;;;;;;25.10;53.90;;;;;;5146555;28;19930;-81
2022/07/14 00:44:55;;;;;;;;;;;25.10;53.90;;;;;;5146823;27;20386;-81
2022/07/14 00:47:22;;;;;;;;;;;25.10;54.00;;;;;;5147903;27;19966;-81
2022/07/14 00:49:52;;;;;;;;;;;25.10;54.00;;;;;;5147677;27;19951;-81
2022/07/14 00:52:19;;;;;;;;;;;25.10;54.00;;;;;;5147960;27;20018;-81
2022/07/14 00:54:45;;;;;;;;;;;25.10;54.10;;;;;;5147740;27;19958;-81
2022/07/14 00:57:12;;;;;;;;;;;25.10;54.10;;;;;;5147974;27;20353;-81
2022/07/14 00:59:40;;;;;;;;;;;25.10;54.20;;;;;;5148160;27;19923;-81
2022/07/14 01:02:07;;;;;;;;;;;25.10;54.20;;;;;;5147791;27;20358;-81
2022/07/14 01:04:33;;;;;;;;;;;25.00;54.10;;;;;;5146999;27;19963;-81
2022/07/14 01:07:00;;;;;;;;;;;25.00;54.20;;;;;;5146160;27;19951;-81
2022/07/14 01:09:26;;;;;;;;;;;25.00;54.20;;;;;;5147258;27;19958;-81
2022/07/14 01:11:53;;;;;;;;;;;25.00;54.20;;;;;;5146704;27;19923;-81
2022/07/14 01:14:20;;;;;;;;;;;25.00;54.20;;;;;;5146481;27;19931;-81
2022/07/14 01:16:53;;;;;;;;;;;25.00;54.30;;;;;;5146242;27;20362;-81
2022/07/14 01:19:20;;;;;;;;;;;25.00;54.30;;;;;;5146315;27;19923;-81
2022/07/14 01:21:48;;;;;;;;;;;25.00;54.30;;;;;;5146007;27;19923;-81
2022/07/14 01:24:15;;;;;;;;;;;25.00;54.30;;;;;;5144870;27;19966;-81
2022/07/14 01:26:42;;;;;;;;;;;25.00;54.30;;;;;;5145252;27;19927;-81
2022/07/14 01:29:08;;;;;;;;;;;25.00;54.40;;;;;;5145943;27;19966;-81
2022/07/14 01:31:35;;;;;;;;;;;25.00;54.40;;;;;;5145396;27;19955;-81
2022/07/14 01:34:02;;;;;;;;;;;25.00;54.50;;;;;;5144999;27;19977;-81
2022/07/14 01:36:28;;;;;;;;;;;25.00;54.50;;;;;;5144833;27;20010;-81
2022/07/14 01:38:57;;;;;;;;;;;25.00;54.50;;;;;;5144410;27;19923;-81
2022/07/14 01:41:23;;;;;;;;;;;25.00;54.60;;;;;;5147145;27;20372;-80
2022/07/14 01:43:50;;;;;;;;;;;25.00;54.60;;;;;;5147411;27;20043;-80
2022/07/14 01:46:17;;;;;;;;;;;25.00;54.70;;;;;;5147116;27;19931;-80
2022/07/14 01:48:44;;;;;;;;;;;25.00;54.70;;;;;;5146621;27;19931;-80
2022/07/14 01:51:11;;;;;;;;;;;25.00;54.70;;;;;;5144631;27;20018;-80
2022/07/14 01:53:38;;;;;;;;;;;25.00;54.80;;;;;;5144287;27;19923;-80
2022/07/14 01:56:06;;;;;;;;;;;25.00;54.80;;;;;;5145487;27;19983;-80
2022/07/14 01:58:33;;;;;;;;;;;25.00;54.80;;;;;;5147419;27;19923;-80
2022/07/14 02:03:45;;;;;;;;;;;25.00;55.00;;;;;;5147133;27;19926;-81
2022/07/14 02:06:11;;;;;;;;;;;25.00;55.00;;;;;;5145500;27;19923;-81
2022/07/14 02:08:38;;;;;;;;;;;25.00;55.10;;;;;;5145640;27;20564;-81
2022/07/14 02:13:50;;;;;;;;;;;25.00;55.10;;;;;;5146587;27;20352;-80
2022/07/14 02:16:17;;;;;;;;;;;25.00;55.20;;;;;;5146512;27;19946;-80
2022/07/14 02:18:44;;;;;;;;;;;25.00;55.20;;;;;;5146466;27;19934;-80
2022/07/14 02:21:10;;;;;;;;;;;25.00;55.30;;;;;;5146264;27;20006;-80
2022/07/14 02:23:37;;;;;;;;;;;25.00;55.30;;;;;;5146249;27;19924;-80
2022/07/14 02:26:04;;;;;;;;;;;25.00;55.30;;;;;;5146248;27;20026;-80
2022/07/14 02:28:32;;;;;;;;;;;25.00;55.40;;;;;;5146865;27;19930;-80
2022/07/14 02:30:58;;;;;;;;;;;25.00;55.40;;;;;;5145505;27;20014;-80
2022/07/14 02:33:25;;;;;;;;;;;25.00;55.50;;;;;;5145700;27;19923;-80
2022/07/14 02:35:52;;;;;;;;;;;25.00;55.50;;;;;;5147684;27;19966;-80
2022/07/14 02:38:19;;;;;;;;;;;25.00;55.50;;;;;;5146646;27;20267;-81
2022/07/14 02:40:45;;;;;;;;;;;25.00;55.60;;;;;;5147285;27;19991;-81
2022/07/14 02:43:12;;;;;;;;;;;25.00;55.70;;;;;;5146623;27;19931;-81
2022/07/14 02:45:40;;;;;;;;;;;25.00;56.30;;;;;;5145801;27;19972;-81
2022/07/14 02:48:07;;;;;;;;;;;25.00;55.80;;;;;;5146014;27;19962;-81
2022/07/14 02:50:36;;;;;;;;;;;25.00;55.90;;;;;;5145410;27;20449;-80
2022/07/14 02:53:02;;;;;;;;;;;25.00;56.00;;;;;;5146037;27;19972;-81
2022/07/14 02:55:29;;;;;;;;;;;25.00;56.00;;;;;;5145803;27;19930;-83
2022/07/14 02:57:56;;;;;;;;;;;25.00;56.00;;;;;;5146807;27;19955;-82
2022/07/14 03:00:22;;;;;;;;;;;25.00;56.00;;;;;;5146685;27;19927;-81
2022/07/14 03:02:51;;;;;;;;;;;25.00;56.00;;;;;;5146682;27;19962;-81
2022/07/14 03:05:17;;;;;;;;;;;25.00;56.00;;;;;;5146907;27;20362;-81
2022/07/14 03:07:44;;;;;;;;;;;25.00;56.00;;;;;;5145629;27;20391;-81
2022/07/14 03:10:11;;;;;;;;;;;25.00;56.00;;;;;;5145469;27;20012;-82
2022/07/14 03:12:37;;;;;;;;;;;25.00;56.00;;;;;;5146175;27;19966;-82
2022/07/14 03:15:04;;;;;;;;;;;25.00;56.00;;;;;;5146099;27;19927;-81
2022/07/14 03:17:31;;;;;;;;;;;25.00;56.00;;;;;;5145772;27;20022;-81
2022/07/14 03:20:00;;;;;;;;;;;25.00;56.00;;;;;;5146005;27;20018;-81
2022/07/14 03:22:26;;;;;;;;;;;25.00;56.00;;;;;;5145588;27;20320;-81
2022/07/14 03:24:53;;;;;;;;;;;25.00;56.00;;;;;;5145273;27;20017;-81
2022/07/14 03:27:20;;;;;;;;;;;25.00;56.00;;;;;;5145478;27;20353;-81
2022/07/14 03:29:46;;;;;;;;;;;25.00;56.00;;;;;;5144789;27;20474;-81
2022/07/14 03:32:13;;;;;;;;;;;25.00;56.10;;;;;;5144212;27;19983;-81
2022/07/14 03:34:40;;;;;;;;;;;25.00;56.20;;;;;;5145283;27;19924;-81
2022/07/14 03:37:09;;;;;;;;;;;25.00;56.20;;;;;;5145000;27;20025;-81
2022/07/14 03:39:35;;;;;;;;;;;25.00;56.30;;;;;;5145022;27;19928;-82
2022/07/14 03:42:02;;;;;;;;;;;25.00;56.30;;;;;;5146482;27;19959;-82
2022/07/14 03:44:28;;;;;;;;;;;25.00;56.40;;;;;;5145115;27;20015;-81
2022/07/14 03:46:55;;;;;;;;;;;25.00;56.50;;;;;;5145181;27;20402;-82
2022/07/14 03:49:22;;;;;;;;;;;25.00;56.50;;;;;;5144954;27;20358;-81
2022/07/14 03:51:49;;;;;;;;;;;25.00;56.60;;;;;;5145655;27;19966;-81
2022/07/14 03:54:17;;;;;;;;;;;25.00;56.70;;;;;;5145114;27;19945;-81
2022/07/14 03:56:44;;;;;;;;;;;25.00;56.70;;;;;;5144450;27;20022;-81
2022/07/14 03:59:11;;;;;;;;;;;25.00;56.70;;;;;;5143678;27;19930;-81
2022/07/14 04:01:37;;;;;;;;;;;25.00;56.80;;;;;;5145147;27;19929;-81
2022/07/14 04:04:04;;;;;;;;;;;25.00;57.40;;;;;;5144114;27;20032;-81
2022/07/14 04:06:31;;;;;;;;;;;25.00;56.90;;;;;;5144494;27;20018;-81
2022/07/14 04:08:58;;;;;;;;;;;25.00;56.90;;;;;;5144996;27;19924;-81
2022/07/14 04:11:26;;;;;;;;;;;25.00;57.00;;;;;;5144604;27;20030;-81
2022/07/14 04:13:53;;;;;;;;;;;25.00;57.00;;;;;;5144412;27;20341;-81
2022/07/14 04:16:19;;;;;;;;;;;25.00;57.00;;;;;;5145146;27;20389;-81
2022/07/14 04:18:46;;;;;;;;;;;25.00;57.00;;;;;;5137084;27;20349;-81
2022/07/14 04:21:13;;;;;;;;;;;24.90;57.00;;;;;;5137081;27;19969;-80
2022/07/14 04:23:40;;;;;;;;;;;24.90;57.10;;;;;;5137311;27;19966;-83
2022/07/14 04:26:06;;;;;;;;;;;25.00;57.10;;;;;;5137838;27;19930;-82
2022/07/14 04:28:34;;;;;;;;;;;24.90;57.10;;;;;;5138229;27;19923;-83
2022/07/14 04:31:02;;;;;;;;;;;25.00;57.20;;;;;;5137509;27;20383;-82
2022/07/14 04:33:29;;;;;;;;;;;24.90;57.10;;;;;;5136934;27;19923;-81
2022/07/14 04:35:56;;;;;;;;;;;25.00;57.20;;;;;;5137668;27;20347;-83
2022/07/14 04:38:25;;;;;;;;;;;24.90;57.20;;;;;;5138116;27;20206;-80
2022/07/14 04:40:53;;;;;;;;;;;24.90;57.20;;;;;;5137330;28;19923;-80
2022/07/14 04:43:19;;;;;;;;;;;25.00;57.40;;;;;;5136339;27;19963;-80
2022/07/14 04:45:47;;;;;;;;;;;25.00;57.40;;;;;;5135707;27;19929;-79
2022/07/14 04:48:14;;;;;;;;;;;25.00;57.50;;;;;;5135417;27;20029;-80
2022/07/14 04:53:25;;;;;;;;;;;25.00;57.60;;;;;;5135650;28;19930;-79
2022/07/14 04:55:53;;;;;;;;;;;25.00;57.60;;;;;;5135491;27;20010;-82
2022/07/14 04:58:19;;;;;;;;;;;25.00;57.70;;;;;;5135310;27;19930;-81
2022/07/14 05:00:48;;;;;;;;;;;25.00;57.70;;;;;;5135900;27;19924;-81
2022/07/14 05:03:15;;;;;;;;;;;25.00;57.80;;;;;;5135519;27;20420;-82
2022/07/14 05:05:41;;;;;;;;;;;25.00;57.80;;;;;;5135447;27;20014;-82
2022/07/14 05:08:08;;;;;;;;;;;25.00;57.90;;;;;;5135464;27;20010;-82
2022/07/14 05:10:35;;;;;;;;;;;25.00;58.00;;;;;;5135433;27;20022;-83
2022/07/14 05:13:01;;;;;;;;;;;25.00;58.00;;;;;;5135464;27;20022;-82
2022/07/14 05:15:28;;;;;;;;;;;25.00;58.10;;;;;;5137646;27;19923;-83
2022/07/14 05:17:56;;;;;;;;;;;25.00;58.10;;;;;;5138944;27;20418;-83
2022/07/14 05:20:23;;;;;;;;;;;25.00;58.20;;;;;;5139140;27;19981;-82
2022/07/14 05:22:50;;;;;;;;;;;25.00;58.20;;;;;;5139180;27;20006;-82
2022/07/14 05:25:16;;;;;;;;;;;25.00;58.30;;;;;;5138910;27;20010;-82
2022/07/14 05:27:44;;;;;;;;;;;25.00;58.30;;;;;;5139334;27;19923;-82
2022/07/14 05:30:11;;;;;;;;;;;25.00;58.30;;;;;;5139162;27;19923;-82
2022/07/14 05:32:39;;;;;;;;;;;25.00;58.40;;;;;;5138509;27;20373;-82
2022/07/14 05:35:07;;;;;;;;;;;25.00;58.40;;;;;;5138933;27;19935;-82
2022/07/14 05:37:34;;;;;;;;;;;25.00;58.40;;;;;;5138682;27;20377;-82
2022/07/14 05:40:01;;;;;;;;;;;25.00;58.40;;;;;;5138879;27;19981;-83
2022/07/14 05:42:28;;;;;;;;;;;25.00;58.50;;;;;;5138642;27;20007;-82
2022/07/14 05:44:54;;;;;;;;;;;24.90;58.40;;;;;;5138478;27;19995;-83
2022/07/14 05:47:21;;;;;;;;;;;25.00;58.60;;;;;;5138361;27;19987;-81
2022/07/14 05:49:48;;;;;;;;;;;25.00;58.60;;;;;;5138665;27;20021;-82
2022/07/14 05:52:16;;;;;;;;;;;25.00;58.70;;;;;;5139159;27;20411;-82
2022/07/14 05:54:42;;;;;;;;;;;25.00;58.70;;;;;;5138459;27;19966;-82
2022/07/14 05:57:09;;;;;;;;;;;25.00;58.70;;;;;;5138249;27;20014;-82
2022/07/14 05:59:36;;;;;;;;;;;25.00;58.80;;;;;;5138283;27;19927;-82
2022/07/14 06:02:03;;;;;;;;;;;25.00;58.70;;;;;;5138402;27;19955;-82
2022/07/14 06:04:30;;;;;;;;;;;25.00;58.70;;;;;;5138072;27;19923;-82
2022/07/14 06:06:57;;;;;;;;;;;25.00;58.70;;;;;;5139120;27;19966;-82
2022/07/14 06:09:25;;;;;;;;;;;25.00;58.60;;;;;;5139323;27;19974;-82
2022/07/14 06:11:51;;;;;;;;;;;25.00;58.60;;;;;;5139275;27;19923;-82
2022/07/14 06:14:18;;;;;;;;;;;24.90;58.40;;;;;;5139152;27;19970;-82
2022/07/14 06:16:45;;;;;;;;;;;25.00;58.40;;;;;;5138959;27;20022;-82
2022/07/14 06:19:11;;;;;;;;;;;24.90;58.20;;;;;;5138921;27;19923;-82
2022/07/14 06:21:38;;;;;;;;;;;24.90;58.20;;;;;;5138842;27;20006;-82
2022/07/14 06:24:05;;;;;;;;;;;24.90;58.10;;;;;;5138522;27;20014;-82
2022/07/14 06:26:34;;;;;;;;;;;24.90;58.00;;;;;;5138522;27;20010;-82
2022/07/14 06:29:01;;;;;;;;;;;24.90;57.90;;;;;;5138237;27;19928;-82
2022/07/14 06:31:28;;;;;;;;;;;24.90;57.80;;;;;;5138821;27;19975;-82
2022/07/14 06:33:55;;;;;;;;;;;24.90;57.70;;;;;;5139051;27;19924;-82
2022/07/14 06:36:22;;;;;;;;;;;24.90;57.60;;;;;;5138749;27;20015;-82
2022/07/14 06:38:48;;;;;;;;;;;24.90;57.40;;;;;;5138290;27;19929;-82
2022/07/14 06:41:15;;;;;;;;;;;24.90;57.30;;;;;;5138682;27;20018;-81
2022/07/14 06:43:43;;;;;;;;;;;24.90;57.80;;;;;;5138141;27;20014;-81
2022/07/14 06:46:14;;;;;;;;;;;24.90;57.10;;;;;;5137883;27;20021;-82
2022/07/14 06:48:41;;;;;;;;;;;24.90;57.00;;;;;;5137260;27;19930;-82
2022/07/14 06:51:07;;;;;;;;;;;24.90;56.90;;;;;;5138686;27;19974;-83
2022/07/14 06:53:34;;;;;;;;;;;24.90;56.70;;;;;;5137495;27;20018;-82
2022/07/14 06:56:01;;;;;;;;;;;24.90;56.60;;;;;;5137837;27;20322;-82
2022/07/14 06:58:28;;;;;;;;;;;24.90;56.50;;;;;;5139753;27;20379;-83
2022/07/14 07:00:56;;;;;;;;;;;24.90;56.40;;;;;;5142172;27;19923;-83
2022/07/14 07:03:23;;;;;;;;;;;24.90;56.20;;;;;;5143721;27;20368;-83
2022/07/14 07:08:35;;;;;;;;;;;24.90;55.90;;;;;;5145507;27;19984;-80
2022/07/14 07:11:02;;;;;;;;;;;24.90;55.90;;;;;;5145749;27;19931;-83
2022/07/14 07:13:29;;;;;;;;;;;24.90;55.90;;;;;;5145796;27;20375;-82
2022/07/14 07:15:57;;;;;;;;;;;24.90;56.00;;;;;;5145298;27;19932;-83
2022/07/14 07:18:24;;;;;;;;;;;24.90;55.90;;;;;;5146383;27;19930;-83
2022/07/14 07:20:52;;;;;;;;;;;24.90;55.60;;;;;;5141182;27;19951;-83
2022/07/14 07:23:18;;;;;;;;;;;24.90;55.50;;;;;;5146306;27;19923;-83
2022/07/14 07:25:46;;;;;;;;;;;24.90;55.30;;;;;;5145286;27;19923;-82
2022/07/14 07:28:13;;;;;;;;;;;24.90;55.20;;;;;;5146598;27;19945;-82
2022/07/14 07:30:40;;;;;;;;;;;25.00;55.10;;;;;;5145306;27;19930;-83
2022/07/14 07:33:08;;;;;;;;;;;25.00;55.00;;;;;;5146331;27;20010;-82
2022/07/14 07:35:36;;;;;;;;;;;25.00;54.80;;;;;;5145180;27;19930;-82
2022/07/14 07:38:03;;;;;;;;;;;25.00;54.70;;;;;;5144588;27;19923;-82
2022/07/14 07:40:30;;;;;;;;;;;25.00;54.60;;;;;;5145618;27;19972;-82
2022/07/14 07:42:57;;;;;;;;;;;25.00;54.50;;;;;;5141552;27;19971;-82
2022/07/14 07:45:24;;;;;;;;;;;25.00;54.40;;;;;;5145544;27;19924;-82
2022/07/14 07:47:51;;;;;;;;;;;25.00;54.20;;;;;;5145842;27;19938;-82
2022/07/14 07:50:20;;;;;;;;;;;25.00;54.70;;;;;;5146420;27;19924;-83
2022/07/14 07:52:47;;;;;;;;;;;25.00;54.00;;;;;;5148312;27;19923;-83
2022/07/14 07:55:14;;;;;;;;;;;25.00;53.80;;;;;;5139673;27;19924;-83
2022/07/14 07:57:42;;;;;;;;;;;25.00;53.70;;;;;;5138314;27;19923;-83
2022/07/14 08:00:09;;;;;;;;;;;25.00;53.60;;;;;;5137558;27;19973;-83
2022/07/14 08:02:36;;;;;;;;;;;25.00;54.10;;;;;;5137760;27;19923;-83
2022/07/14 08:05:03;;;;;;;;;;;25.00;53.40;;;;;;5137990;27;19962;-85
2022/07/14 08:07:31;;;;;;;;;;;25.00;53.30;;;;;;5137435;27;19973;-83
2022/07/14 08:09:57;;;;;;;;;;;25.10;53.20;;;;;;5136640;27;19974;-83
2022/07/14 08:12:24;;;;;;;;;;;25.10;53.10;;;;;;5136813;27;19924;-83
2022/07/14 08:14:52;;;;;;;;;;;25.10;53.00;;;;;;5138322;27;19929;-83
2022/07/14 08:17:20;;;;;;;;;;;25.00;52.90;;;;;;5142357;27;19923;-83
2022/07/14 08:19:47;;;;;;;;;;;25.10;52.80;;;;;;5144982;27;19950;-82
2022/07/14 08:22:14;;;;;;;;;;;25.10;52.80;;;;;;5140454;27;20017;-82
2022/07/14 08:24:43;;;;;;;;;;;25.10;52.60;;;;;;5143826;27;19976;-84
2022/07/14 08:27:10;;;;;;;;;;;25.10;52.50;;;;;;5146972;27;19923;-82
2022/07/14 08:29:37;;;;;;;;;;;25.10;52.40;;;;;;5144921;27;19923;-83
2022/07/14 08:32:05;;;;;;;;;;;25.10;52.30;;;;;;5147713;27;19923;-84
2022/07/14 08:34:32;;;;;;;;;;;25.10;52.20;;;;;;5147232;27;20328;-83
2022/07/14 08:37:00;;;;;;;;;;;25.10;52.10;;;;;;5148234;27;19924;-83
2022/07/14 08:39:27;;;;;;;;;;;25.10;52.00;;;;;;5144923;27;19930;-83
2022/07/14 08:41:56;;;;;;;;;;;25.10;51.90;;;;;;5145282;27;19958;-84
2022/07/14 08:44:23;;;;;;;;;;;25.10;51.80;;;;;;5146863;27;20017;-84
2022/07/14 08:46:50;;;;;;;;;;;25.10;51.70;;;;;;5147317;27;19955;-84
2022/07/14 08:49:18;;;;;;;;;;;25.10;51.60;;;;;;5146422;27;19927;-85
2022/07/14 08:51:45;;;;;;;;;;;25.10;51.40;;;;;;5153158;27;20018;-84
2022/07/14 08:54:13;;;;;;;;;;;25.10;51.30;;;;;;5153422;27;19924;-84
2022/07/14 08:56:40;;;;;;;;;;;25.10;51.30;;;;;;5153208;27;19923;-82
2022/07/14 08:59:09;;;;;;;;;;;25.20;51.30;;;;;;5154713;27;19927;-83
2022/07/14 09:01:37;;;;;;;;;;;25.20;51.30;;;;;;5153652;27;20014;-85
2022/07/14 09:04:04;;;;;;;;;;;25.20;51.30;;;;;;5153431;27;19923;-83
2022/07/14 09:06:51;;;;;;;;;;;25.10;51.30;;;;;;5151042;27;19946;-81
2022/07/14 09:09:18;;;;;;;;;;;25.20;51.30;;;;;;5150339;27;19930;-82
2022/07/14 09:11:55;;;;;;;;;;;25.10;51.20;;;;;;5148909;27;19924;-81
2022/07/14 09:14:23;;;;;;;;;;;25.10;51.00;;;;;;5148091;27;19951;-80
2022/07/14 09:16:49;;;;;;;;;;;25.10;50.80;;;;;;5139848;27;20010;-82
2022/07/14 09:19:19;;;;;;;;;;;25.10;50.70;;;;;;5138702;27;19928;-80
2022/07/14 09:21:47;;;;;;;;;;;25.10;50.60;;;;;;5141744;27;19923;-79
2022/07/14 09:24:14;;;;;;;;;;;25.10;50.50;;;;;;5140557;27;19929;-79
2022/07/14 09:26:45;;;;;;;;;;;25.20;50.50;;;;;;5140139;27;19930;-79
2022/07/14 09:29:17;;;;;;;;;;;25.20;50.40;;;;;;5139951;27;19976;-79
2022/07/14 09:31:47;;;;;;;;;;;25.20;50.30;;;;;;5140249;27;20263;-79
2022/07/14 09:34:24;;;;;;;;;;;25.20;50.20;;;;;;5140010;27;19970;-80
2022/07/14 09:36:51;;;;;;;;;;;25.20;50.10;;;;;;5140838;27;20010;-80
2022/07/14 09:39:18;;;;;;;;;;;25.20;50.00;;;;;;5140743;27;19924;-80
2022/07/14 09:41:49;;;;;;;;;;;25.20;49.90;;;;;;5140280;27;19924;-80
2022/07/14 09:44:17;;;;;;;;;;;25.20;49.90;;;;;;5140476;27;19923;-80
2022/07/14 09:46:46;;;;;;;;;;;25.20;49.80;;;;;;5141218;27;20271;-80
2022/07/14 09:49:13;;;;;;;;;;;25.20;49.70;;;;;;5141261;27;19979;-80
2022/07/14 09:51:52;;;;;;;;;;;25.30;49.80;;;;;;5141580;27;19923;-81
2022/07/14 09:54:33;;;;;;;;;;;25.30;49.70;;;;;;5140721;27;19923;-79
2022/07/14 09:57:00;;;;;;;;;;;25.30;49.60;;;;;;5141539;27;20018;-80
2022/07/14 09:59:28;;;;;;;;;;;25.30;49.60;;;;;;5140475;27;20374;-80
2022/07/14 10:01:57;;;;;;;;;;;25.30;49.50;;;;;;5141587;27;20032;-80
2022/07/14 10:04:25;;;;;;;;;;;25.30;49.50;;;;;;5147674;27;19993;-80
2022/07/14 10:06:52;;;;;;;;;;;25.30;49.50;;;;;;5150824;27;19923;-81
2022/07/14 10:09:20;;;;;;;;;;;25.30;49.50;;;;;;5149381;27;19927;-81
2022/07/14 10:11:47;;;;;;;;;;;25.30;49.40;;;;;;5147627;27;20379;-80
2022/07/14 10:14:14;;;;;;;;;;;25.40;49.50;;;;;;5145711;27;19928;-79
2022/07/14 10:16:44;;;;;;;;;;;25.40;49.50;;;;;;5146195;27;19924;-79
2022/07/14 10:19:12;;;;;;;;;;;25.40;49.50;;;;;;5146200;27;19950;-79
2022/07/14 10:21:40;;;;;;;;;;;25.40;49.50;;;;;;5144144;27;19927;-79
2022/07/14 10:24:08;;;;;;;;;;;25.40;49.50;;;;;;5144715;27;20392;-79
2022/07/14 10:26:36;;;;;;;;;;;25.40;50.10;;;;;;5144479;27;20272;-79
2022/07/14 10:29:04;;;;;;;;;;;25.40;49.40;;;;;;5145514;27;19930;-80
2022/07/14 10:31:36;;;;;;;;;;;25.40;49.40;;;;;;5145834;27;19931;-80
2022/07/14 10:34:10;;;;;;;;;;;25.50;49.50;;;;;;5146033;27;19938;-80
2022/07/14 10:36:40;;;;;;;;;;;25.50;49.50;;;;;;5146571;27;19967;-80
2022/07/14 10:39:12;;;;;;;;;;;25.40;50.00;;;;;;5145726;27;19923;-80
2022/07/14 10:41:55;;;;;;;;;;;25.40;49.40;;;;;;5140628;27;19927;-80
2022/07/14 10:44:22;;;;;;;;;;;25.50;49.50;;;;;;5138739;27;20359;-81
2022/07/14 10:46:50;;;;;;;;;;;25.50;49.60;;;;;;5139128;27;20027;-81
2022/07/14 10:49:18;;;;;;;;;;;25.50;49.70;;;;;;5138781;27;20363;-81
2022/07/14 10:51:47;;;;;;;;;;;25.60;50.00;;;;;;5138769;27;20006;-80
2022/07/14 10:54:15;;;;;;;;;;;25.60;50.20;;;;;;5138914;27;20015;-81
2022/07/14 10:56:42;;;;;;;;;;;25.60;50.40;;;;;;5139008;27;20010;-81
2022/07/14 10:59:28;;;;;;;;;;;25.70;50.70;;;;;;5138509;27;20014;-81
2022/07/14 11:02:13;;;;;;;;;;;25.80;51.10;;;;;;5139097;27;19923;-81
2022/07/14 11:04:58;;;;;;;;;;;25.80;51.40;;;;;;5139533;27;20402;-83
2022/07/14 11:07:38;;;;;;;;;;;25.80;51.70;;;;;;5139452;27;20006;-81
2022/07/14 11:10:05;;;;;;;;;;;25.90;51.80;;;;;;5140890;27;19962;-80
2022/07/14 11:12:32;;;;;;;;;;;25.90;52.00;;;;;;5139082;27;19986;-82
2022/07/14 11:14:58;;;;;;;;;;;25.90;52.20;;;;;;5140117;27;20018;-82
2022/07/14 11:17:36;;;;;;;;;;;25.90;52.40;;;;;;5140064;27;19931;-81
2022/07/14 11:20:04;;;;;;;;;;;25.90;52.60;;;;;;5140300;27;19927;-81
2022/07/14 11:22:30;;;;;;;;;;;25.90;52.70;;;;;;5142629;27;20344;-81
2022/07/14 11:24:59;;;;;;;;;;;25.90;52.80;;;;;;5141845;27;19978;-82
2022/07/14 11:27:32;;;;;;;;;;;25.90;52.90;;;;;;5144170;27;19969;-80
2022/07/14 11:30:17;;;;;;;;;;;25.90;53.00;;;;;;5137591;27;19974;-81
2022/07/14 11:32:44;;;;;;;;;;;25.90;53.00;;;;;;5137633;27;20336;-81
2022/07/14 11:37:58;;;;;;;;;;;25.80;53.20;;;;;;5138923;27;19927;-81
2022/07/14 11:40:43;;;;;;;;;;;25.80;53.20;;;;;;5138744;27;19923;-79
2022/07/14 11:43:36;;;;;;;;;;;25.80;53.20;;;;;;5137454;27;19924;-81
2022/07/14 11:46:04;;;;;;;;;;;25.80;53.10;;;;;;5137406;27;19923;-79
2022/07/14 11:48:32;;;;;;;;;;;25.70;53.00;;;;;;5137990;27;20017;-79
2022/07/14 11:51:02;;;;;;;;;;;25.70;53.00;;;;;;5138039;27;20014;-80
2022/07/14 11:53:29;;;;;;;;;;;25.70;52.90;;;;;;5138844;27;20454;-79
2022/07/14 11:55:57;;;;;;;;;;;25.70;52.90;;;;;;5138730;27;20355;-79
2022/07/14 11:58:24;;;;;;;;;;;25.70;52.80;;;;;;5138644;27;19934;-79
2022/07/14 12:00:54;;;;;;;;;;;25.70;52.70;;;;;;5139013;27;20030;-79
2022/07/14 12:03:21;;;;;;;;;;;25.60;52.60;;;;;;5136580;27;19934;-79
2022/07/14 12:05:52;;;;;;;;;;;25.60;52.50;;;;;;5135931;27;19977;-79
2022/07/14 12:08:22;;;;;;;;;;;25.70;52.50;;;;;;5135590;27;19958;-79
2022/07/14 12:10:49;;;;;;;;;;;25.60;52.30;;;;;;5135871;27;19931;-79
2022/07/14 12:13:18;;;;;;;;;;;25.60;52.10;;;;;;5135337;27;19924;-79
2022/07/14 12:15:45;;;;;;;;;;;25.60;52.60;;;;;;5135502;27;20295;-79
2022/07/14 12:18:12;;;;;;;;;;;25.60;51.90;;;;;;5135530;27;19930;-79
2022/07/14 12:20:41;;;;;;;;;;;25.60;51.80;;;;;;5135485;27;20018;-79
2022/07/14 12:23:07;;;;;;;;;;;25.60;51.60;;;;;;5135826;27;19923;-79
2022/07/14 12:25:35;;;;;;;;;;;25.60;51.60;;;;;;5135388;27;19930;-79
2022/07/14 12:28:03;;;;;;;;;;;25.60;51.60;;;;;;5136679;27;19928;-81
2022/07/14 12:30:48;;;;;;;;;;;25.60;51.60;;;;;;5136874;27;19927;-80
2022/07/14 12:33:15;;;;;;;;;;;25.60;51.60;;;;;;5137390;27;20343;-81
2022/07/14 12:35:45;;;;;;;;;;;25.60;51.50;;;;;;5152889;22;21685;-81
2022/07/14 12:38:13;;;;;;;;;;;25.60;51.60;;;;;;5075822;28;19931;-80
2022/07/14 12:40:41;;;;;;;;;;;25.60;51.60;;;;;;5075763;28;19924;-81
2022/07/14 12:43:09;;;;;;;;;;;25.60;51.50;;;;;;5076328;28;19924;-79
2022/07/14 12:45:50;;;;;;;;;;;25.60;51.40;;;;;;5075416;28;19928;-79
2022/07/14 12:48:22;;;;;;;;;;;25.70;51.40;;;;;;5074751;28;20015;-79
2022/07/14 12:50:49;;;;;;;;;;;25.60;51.30;;;;;;5079117;28;19925;-79
2022/07/14 12:53:18;;;;;;;;;;;25.60;51.20;;;;;;5079604;28;19931;-79
2022/07/14 12:55:45;;;;;;;;;;;25.70;51.20;;;;;;5078499;28;19995;-79
2022/07/14 12:58:14;;;;;;;;;;;25.70;51.10;;;;;;5079622;28;19925;-78
2022/07/14 13:00:42;;;;;;;;;;;25.70;51.10;;;;;;5079456;28;19974;-78
2022/07/14 13:03:11;;;;;;;;;;;25.70;51.10;;;;;;5078964;28;20012;-78
2022/07/14 13:05:44;;;;;;;;;;;25.70;51.10;;;;;;5078718;28;19932;-79
2022/07/14 13:08:25;;;;;;;;;;;25.70;51.10;;;;;;5081700;28;19924;-78
2022/07/14 13:10:59;;;;;;;;;;;25.70;51.10;;;;;;5060629;28;20022;-78
2022/07/14 13:13:30;;;;;;;;;;;25.70;51.00;;;;;;5079240;28;19924;-79
2022/07/14 13:16:17;;;;;;;;;;;25.70;51.10;;;;;;5079061;28;19924;-79
2022/07/14 13:19:04;;;;;;;;;;;25.70;51.60;;;;;;5079475;28;19970;-80
2022/07/14 13:21:55;;;;;;;;;;;25.80;51.10;;;;;;5079164;28;19924;-80
2022/07/14 13:24:27;;;;;;;;;;;25.70;51.00;;;;;;5063269;28;20380;-78
2022/07/14 13:27:02;;;;;;;;;;;25.80;51.10;;;;;;5081722;28;19931;-80
2022/07/14 13:29:29;;;;;;;;;;;25.80;51.10;;;;;;5082403;28;19947;-79
2022/07/14 13:31:57;;;;;;;;;;;25.80;51.10;;;;;;5082587;28;19924;-79
2022/07/14 13:34:32;;;;;;;;;;;25.80;51.10;;;;;;5084169;28;20388;-80
2022/07/14 13:37:00;;;;;;;;;;;25.80;51.10;;;;;;5086973;28;19963;-83
2022/07/14 13:39:28;;;;;;;;;;;25.80;51.10;;;;;;5085897;28;19987;-81
2022/07/14 13:41:55;;;;;;;;;;;25.80;51.20;;;;;;5082160;28;20044;-80
2022/07/14 13:44:22;;;;;;;;;;;25.80;51.10;;;;;;5081326;28;20015;-79
2022/07/14 13:46:48;;;;;;;;;;;25.80;51.20;;;;;;5082205;28;20035;-80
2022/07/14 13:49:15;;;;;;;;;;;25.90;51.20;;;;;;5081282;28;20011;-77
2022/07/14 13:54:26;;;;;;;;;;;25.90;51.30;;;;;;5078651;28;19926;-76
2022/07/14 13:56:55;;;;;;;;;;;25.90;51.40;;;;;;5079896;28;19998;-78
2022/07/14 13:59:22;;;;;;;;;;;25.90;51.40;;;;;;5079704;28;19924;-76
2022/07/14 14:01:49;;;;;;;;;;;25.90;51.40;;;;;;5079783;28;20011;-76
2022/07/14 14:04:15;;;;;;;;;;;25.90;51.40;;;;;;5080195;28;19963;-78
2022/07/14 14:06:43;;;;;;;;;;;26.00;51.50;;;;;;5082901;28;19980;-79
2022/07/14 14:09:10;;;;;;;;;;;26.00;51.50;;;;;;5081649;28;20015;-78
2022/07/14 14:11:37;;;;;;;;;;;26.00;51.40;;;;;;5080943;28;20031;-78
2022/07/14 14:14:11;;;;;;;;;;;26.00;51.40;;;;;;5083364;28;19985;-78
2022/07/14 14:16:38;;;;;;;;;;;26.00;51.30;;;;;;5084877;28;19947;-78
2022/07/14 14:19:05;;;;;;;;;;;26.00;51.30;;;;;;5084368;28;19950;-78
2022/07/14 14:24:34;;;;;;;;;;;26.00;51.10;;;;;;5083802;28;19923;-79
2022/07/14 14:27:01;;;;;;;;;;;25.90;51.00;;;;;;5084309;28;20439;-78
2022/07/14 14:29:29;;;;;;;;;;;25.90;50.90;;;;;;5084504;28;20003;-78
2022/07/14 14:31:58;;;;;;;;;;;26.00;50.90;;;;;;5083578;28;20023;-77
2022/07/14 14:34:25;;;;;;;;;;;25.90;50.70;;;;;;5082259;28;19978;-78
2022/07/14 14:36:51;;;;;;;;;;;25.90;50.70;;;;;;5084680;28;19963;-78
2022/07/14 14:39:18;;;;;;;;;;;25.90;50.50;;;;;;5082695;28;19924;-79
2022/07/14 14:41:45;;;;;;;;;;;25.90;50.50;;;;;;5080819;28;20039;-80